Detalii statie AGRONOVA [00001CEC]

Toti senzorii

Date Temperatura solului [C]Precipitatii [mm]Voltaj baterie [mV]Leaf Wetness [Min]HC Air temperature [C]HC Relative humidity [%]Punctul de roua [C]
medieminmaxsumaultimatimpmedieminmaxmediemediemin
2019-06-15 17:00:00 26.3 26.2 26.5 0 7000 31.82 31.58 32.33 45.53 18.3 17.8
2019-06-15 18:00:00 26.1 26 26.3 0 6894 30.27 26.84 31.71 48.25 17.8 16.4
2019-06-15 19:00:00 25.9 25.7 26.1 0 6796 25.62 24.98 26.21 50.07 0
2019-06-15 20:00:00 25.7 25.6 26 0 6668 23.97 23.25 24.73 0 0 0
2019-06-15 21:00:00 25.4 25.2 25.7 0 6582 21.94 21.13 23.26 0 0 0
2019-06-15 22:00:00 25.1 24.9 25.3 0 6572 22.08 21.42 22.66 0 0 0
2019-06-15 23:00:00 24.8 24.8 25 0 6562 22.08 21.23 22.46 0 0 0
2019-06-16 00:00:00 24.6 24.4 24.8 0 6572 19.77 19.09 20.93 0 0 0
2019-06-16 01:00:00 24.3 24 24.4 0 6562 19.3 18.31 20.88 0 0 0
2019-06-16 02:00:00 24 23.7 24.3 0 6562 18.13 17.8 18.6 0 0 0
2019-06-16 03:00:00 23.7 23.6 24.1 0 6542 17.52 17.17 18.08 0 0 0
2019-06-16 04:00:00 23.4 23.4 23.7 0 6542 17.55 17.2 17.98 0 0 0
2019-06-16 05:00:00 23.2 23.1 23.5 0 6532 17.87 17.27 18.17 0 0 0
2019-06-16 06:00:00 23.1 23.1 23.3 0 6552 17.65 17.25 18.26 0 0 0
2019-06-16 07:00:00 22.9 22.8 23.2 0 6620 19.26 18.41 20.27 0 0 0
2019-06-16 08:00:00 22.9 22.8 23.1 0 6688 21.37 20.32 22.21 0 0 0
2019-06-16 09:00:00 22.9 22.8 23.1 0 6854 23.75 22.55 26.15 0 0 0
2019-06-16 10:00:00 23 22.9 23.2 0 7070 27.75 27.07 28.58 0 0 0
2019-06-16 11:00:00 23.2 23.1 23.5 0 7236 29.55 27.29 32.61 38.26 14 0
2019-06-16 12:00:00 23.6 23.4 23.9 0 7236 31.68 30.74 33.23 54.76 21.2 20.5
2019-06-16 13:00:00 24.5 24 24.9 0 7236 33.32 32.59 34.57 53.17 22.2 21.4
2019-06-16 14:00:00 25.2 24.9 25.6 0 7236 33.65 32.82 35.06 50.77 21.7 21
2019-06-16 15:00:00 25.8 25.6 26.1 0 6982 33.3 32.65 34.52 49.99 21.2 20.2
2019-06-16 16:00:00 26 25.9 26.1 0 7010 32.6 32.22 33.3 49.18 20.3 18.5
2019-06-16 17:00:00 26 25.8 26.1 0 6992 31.79 31.33 32.09 49.58 19.7 19
2019-06-16 18:00:00 25.8 25.7 26.1 0 6942 31.15 30.61 31.71 54.68 20.6 19.7
2019-06-16 19:00:00 25.7 25.5 25.8 0 6844 29.86 28.93 30.61 66.38 22.7 21.7
2019-06-16 20:00:00 25.5 25.4 25.6 0 6660 27.77 26.63 28.94 75.54 22.8 21.7
2019-06-16 21:00:00 25.3 25.2 25.4 0 6590 24.16 21.92 26.68 90.84 22.3 21.7
2019-06-16 22:00:00 25 24.8 25.2 0 6562 21.08 20.76 21.63 58.26 0
2019-06-16 23:00:00 24.8 24.6 25 0 6572 21.48 20.7 22.17 0 0 0
2019-06-17 00:00:00 24.5 24.4 24.7 0 6562 19.84 19.09 20.52 0 0 0
2019-06-17 01:00:00 24.3 24.2 24.5 0 6562 19.09 18.53 19.71 0 0 0
2019-06-17 02:00:00 23.9 23.9 24.3 0 6562 17.67 17.15 18.47 0 0 0
2019-06-17 03:00:00 23.7 23.4 23.9 0 6552 17.01 16.74 17.41 0 0 0
2019-06-17 04:00:00 23.4 23.3 23.6 0 6542 16.52 15.9 16.77 0 0 0
2019-06-17 05:00:00 23.3 23.2 23.5 0 6542 16.29 16.07 16.59 0 0 0
2019-06-17 06:00:00 23 22.9 23.3 0 6562 16.9 16.03 17.58 0 0 0
2019-06-17 07:00:00 22.9 22.8 23 0 6640 18.62 17.77 19.37 0 0 0
2019-06-17 08:00:00 22.8 22.8 22.9 0 6678 22.33 20.06 24.64 0 0 0
2019-06-17 09:00:00 22.9 22.8 23 0 6728 26.84 24.85 27.99 0 0 0
2019-06-17 10:00:00 23.1 23 23.4 0 6932 29.09 27.87 30.37 0 0 0
2019-06-17 11:00:00 23.6 23.4 24.1 0 7236 31.47 30.61 32.49 28.18 10.8 0
2019-06-17 12:00:00 24.2 23.8 24.6 0 7236 33.23 31.92 34.38 47.78 20.4 18.5
2019-06-17 13:00:00 25 24.8 25.2 0 7236 34.08 30.93 35.78 47.2 21 19.9
2019-06-17 14:00:00 25.6 25.3 25.9 0 7236 35.12 32.86 36.14 45.51 21.4 20.6
2019-06-17 15:00:00 26.2 26 26.5 0 7176 34.67 33.4 35.74 45.31 20.8 19.2
2019-06-17 16:00:00 26.4 26.4 26.5 0 7010 33.09 32.41 34.28 44.33 19 18.4